sensor_id;sensor_type;location;lat;lon;timestamp;P1;durP1;ratioP1;P2;durP2;ratioP2
2766;SDS011;1391;46.742;11.636;2022-08-27T00:02:17;7.93;;;3.30;;
2766;SDS011;1391;46.742;11.636;2022-08-27T00:04:45;3.43;;;2.70;;
2766;SDS011;1391;46.742;11.636;2022-08-27T00:07:12;6.77;;;3.00;;
2766;SDS011;1391;46.742;11.636;2022-08-27T00:09:40;3.87;;;2.70;;
2766;SDS011;1391;46.742;11.636;2022-08-27T00:12:08;4.83;;;3.10;;
2766;SDS011;1391;46.742;11.636;2022-08-27T00:14:37;4.63;;;3.30;;
2766;SDS011;1391;46.742;11.636;2022-08-27T00:17:05;7.20;;;3.37;;
2766;SDS011;1391;46.742;11.636;2022-08-27T00:19:33;9.50;;;3.77;;
2766;SDS011;1391;46.742;11.636;2022-08-27T00:22:01;4.37;;;2.90;;
2766;SDS011;1391;46.742;11.636;2022-08-27T00:24:29;5.70;;;3.30;;
2766;SDS011;1391;46.742;11.636;2022-08-27T00:26:57;7.20;;;3.37;;
2766;SDS011;1391;46.742;11.636;2022-08-27T00:29:24;4.47;;;2.80;;
2766;SDS011;1391;46.742;11.636;2022-08-27T00:31:52;7.40;;;3.30;;
2766;SDS011;1391;46.742;11.636;2022-08-27T00:34:20;7.27;;;3.17;;
2766;SDS011;1391;46.742;11.636;2022-08-27T00:36:48;4.70;;;3.63;;
2766;SDS011;1391;46.742;11.636;2022-08-27T00:39:17;3.83;;;2.90;;
2766;SDS011;1391;46.742;11.636;2022-08-27T00:41:44;5.40;;;3.10;;
2766;SDS011;1391;46.742;11.636;2022-08-27T00:44:12;5.40;;;3.20;;
2766;SDS011;1391;46.742;11.636;2022-08-27T00:46:41;4.93;;;3.10;;
2766;SDS011;1391;46.742;11.636;2022-08-27T00:49:15;6.73;;;2.83;;
2766;SDS011;1391;46.742;11.636;2022-08-27T00:51:49;6.33;;;2.97;;
2766;SDS011;1391;46.742;11.636;2022-08-27T00:54:21;3.90;;;2.70;;
2766;SDS011;1391;46.742;11.636;2022-08-27T00:56:49;3.30;;;3.00;;
2766;SDS011;1391;46.742;11.636;2022-08-27T00:59:17;3.93;;;2.90;;
2766;SDS011;1391;46.742;11.636;2022-08-27T01:01:47;4.13;;;2.73;;
2766;SDS011;1391;46.742;11.636;2022-08-27T01:04:33;3.73;;;3.00;;
2766;SDS011;1391;46.742;11.636;2022-08-27T01:07:02;3.63;;;2.80;;
2766;SDS011;1391;46.742;11.636;2022-08-27T01:09:32;3.80;;;2.93;;
2766;SDS011;1391;46.742;11.636;2022-08-27T01:12:00;5.10;;;2.80;;
2766;SDS011;1391;46.742;11.636;2022-08-27T01:14:27;3.93;;;2.70;;
2766;SDS011;1391;46.742;11.636;2022-08-27T01:16:56;4.80;;;2.53;;
2766;SDS011;1391;46.742;11.636;2022-08-27T01:19:27;4.53;;;2.80;;
2766;SDS011;1391;46.742;11.636;2022-08-27T01:22:05;4.07;;;2.57;;
2766;SDS011;1391;46.742;11.636;2022-08-27T01:24:41;4.73;;;3.00;;
2766;SDS011;1391;46.742;11.636;2022-08-27T01:27:11;3.23;;;2.93;;
2766;SDS011;1391;46.742;11.636;2022-08-27T01:29:42;3.77;;;2.80;;
2766;SDS011;1391;46.742;11.636;2022-08-27T01:32:12;4.43;;;3.13;;
2766;SDS011;1391;46.742;11.636;2022-08-27T01:34:42;6.50;;;2.90;;
2766;SDS011;1391;46.742;11.636;2022-08-27T01:37:10;3.37;;;3.07;;
2766;SDS011;1391;46.742;11.636;2022-08-27T01:39:40;5.37;;;3.10;;
2766;SDS011;1391;46.742;11.636;2022-08-27T01:42:09;5.13;;;2.80;;
2766;SDS011;1391;46.742;11.636;2022-08-27T01:44:42;4.93;;;2.90;;
2766;SDS011;1391;46.742;11.636;2022-08-27T01:47:14;4.33;;;3.00;;
2766;SDS011;1391;46.742;11.636;2022-08-27T01:49:43;3.23;;;2.93;;
2766;SDS011;1391;46.742;11.636;2022-08-27T01:52:11;3.50;;;3.20;;
2766;SDS011;1391;46.742;11.636;2022-08-27T01:54:41;4.57;;;2.70;;
2766;SDS011;1391;46.742;11.636;2022-08-27T01:57:09;4.80;;;2.90;;
2766;SDS011;1391;46.742;11.636;2022-08-27T01:59:36;3.73;;;2.87;;
2766;SDS011;1391;46.742;11.636;2022-08-27T02:02:04;3.53;;;2.50;;
2766;SDS011;1391;46.742;11.636;2022-08-27T02:04:31;3.13;;;2.70;;
2766;SDS011;1391;46.742;11.636;2022-08-27T02:06:58;2.80;;;2.60;;
2766;SDS011;1391;46.742;11.636;2022-08-27T02:09:26;3.67;;;2.60;;
2766;SDS011;1391;46.742;11.636;2022-08-27T02:11:54;3.30;;;2.77;;
2766;SDS011;1391;46.742;11.636;2022-08-27T02:14:22;4.30;;;3.03;;
2766;SDS011;1391;46.742;11.636;2022-08-27T02:16:49;3.43;;;3.00;;
2766;SDS011;1391;46.742;11.636;2022-08-27T02:19:16;4.73;;;2.80;;
2766;SDS011;1391;46.742;11.636;2022-08-27T02:21:44;5.50;;;3.00;;
2766;SDS011;1391;46.742;11.636;2022-08-27T02:24:11;6.80;;;2.80;;
2766;SDS011;1391;46.742;11.636;2022-08-27T02:26:40;3.90;;;3.10;;
2766;SDS011;1391;46.742;11.636;2022-08-27T02:29:08;5.20;;;3.27;;
2766;SDS011;1391;46.742;11.636;2022-08-27T02:31:36;3.47;;;3.07;;
2766;SDS011;1391;46.742;11.636;2022-08-27T02:34:05;3.00;;;2.70;;
2766;SDS011;1391;46.742;11.636;2022-08-27T02:36:33;6.40;;;3.27;;
2766;SDS011;1391;46.742;11.636;2022-08-27T02:39:02;3.97;;;3.10;;
2766;SDS011;1391;46.742;11.636;2022-08-27T02:41:29;3.97;;;3.30;;
2766;SDS011;1391;46.742;11.636;2022-08-27T02:43:57;4.37;;;3.13;;
2766;SDS011;1391;46.742;11.636;2022-08-27T02:46:26;7.10;;;2.67;;
2766;SDS011;1391;46.742;11.636;2022-08-27T02:48:54;4.83;;;3.20;;
2766;SDS011;1391;46.742;11.636;2022-08-27T02:51:21;4.70;;;2.97;;
2766;SDS011;1391;46.742;11.636;2022-08-27T02:53:49;7.97;;;3.30;;
2766;SDS011;1391;46.742;11.636;2022-08-27T02:56:16;4.00;;;2.90;;
2766;SDS011;1391;46.742;11.636;2022-08-27T02:58:44;7.23;;;2.93;;
2766;SDS011;1391;46.742;11.636;2022-08-27T03:01:11;3.57;;;3.27;;
2766;SDS011;1391;46.742;11.636;2022-08-27T03:03:40;3.67;;;3.00;;
2766;SDS011;1391;46.742;11.636;2022-08-27T03:06:08;3.50;;;3.13;;
2766;SDS011;1391;46.742;11.636;2022-08-27T03:08:35;19.50;;;3.83;;
2766;SDS011;1391;46.742;11.636;2022-08-27T03:11:02;3.20;;;2.40;;
2766;SDS011;1391;46.742;11.636;2022-08-27T03:13:33;2.73;;;2.53;;
2766;SDS011;1391;46.742;11.636;2022-08-27T03:16:03;3.90;;;2.57;;
2766;SDS011;1391;46.742;11.636;2022-08-27T03:18:30;6.07;;;2.60;;
2766;SDS011;1391;46.742;11.636;2022-08-27T03:20:59;5.70;;;3.37;;
2766;SDS011;1391;46.742;11.636;2022-08-27T03:23:28;3.77;;;3.03;;
2766;SDS011;1391;46.742;11.636;2022-08-27T03:25:58;4.13;;;3.03;;
2766;SDS011;1391;46.742;11.636;2022-08-27T03:28:30;5.37;;;3.30;;
2766;SDS011;1391;46.742;11.636;2022-08-27T03:31:00;4.27;;;3.00;;
2766;SDS011;1391;46.742;11.636;2022-08-27T03:33:30;3.37;;;2.60;;
2766;SDS011;1391;46.742;11.636;2022-08-27T03:36:01;2.73;;;2.43;;
2766;SDS011;1391;46.742;11.636;2022-08-27T03:38:30;2.40;;;2.20;;
2766;SDS011;1391;46.742;11.636;2022-08-27T03:40:57;2.50;;;2.20;;
2766;SDS011;1391;46.742;11.636;2022-08-27T03:43:25;2.30;;;2.10;;
2766;SDS011;1391;46.742;11.636;2022-08-27T03:45:52;2.57;;;2.37;;
2766;SDS011;1391;46.742;11.636;2022-08-27T03:48:19;2.97;;;2.67;;
2766;SDS011;1391;46.742;11.636;2022-08-27T03:50:48;6.60;;;2.90;;
2766;SDS011;1391;46.742;11.636;2022-08-27T03:53:17;3.77;;;2.67;;
2766;SDS011;1391;46.742;11.636;2022-08-27T03:55:45;2.40;;;2.20;;
2766;SDS011;1391;46.742;11.636;2022-08-27T03:58:13;3.43;;;2.70;;
2766;SDS011;1391;46.742;11.636;2022-08-27T04:00:42;2.73;;;2.50;;
2766;SDS011;1391;46.742;11.636;2022-08-27T04:03:10;2.60;;;2.37;;
2766;SDS011;1391;46.742;11.636;2022-08-27T04:05:38;4.63;;;2.37;;
2766;SDS011;1391;46.742;11.636;2022-08-27T04:08:06;2.23;;;2.03;;
2766;SDS011;1391;46.742;11.636;2022-08-27T04:10:35;3.53;;;2.60;;
2766;SDS011;1391;46.742;11.636;2022-08-27T04:13:06;2.93;;;2.57;;
2766;SDS011;1391;46.742;11.636;2022-08-27T04:15:34;2.63;;;2.43;;
2766;SDS011;1391;46.742;11.636;2022-08-27T04:18:01;3.67;;;2.50;;
2766;SDS011;1391;46.742;11.636;2022-08-27T04:20:29;5.50;;;2.97;;
2766;SDS011;1391;46.742;11.636;2022-08-27T04:22:57;7.13;;;2.90;;
2766;SDS011;1391;46.742;11.636;2022-08-27T04:25:24;3.57;;;2.70;;
2766;SDS011;1391;46.742;11.636;2022-08-27T04:27:53;5.80;;;2.47;;
2766;SDS011;1391;46.742;11.636;2022-08-27T04:30:20;3.93;;;3.00;;
2766;SDS011;1391;46.742;11.636;2022-08-27T04:32:47;2.90;;;2.60;;
2766;SDS011;1391;46.742;11.636;2022-08-27T04:35:15;4.27;;;2.27;;
2766;SDS011;1391;46.742;11.636;2022-08-27T04:37:43;2.67;;;2.40;;
2766;SDS011;1391;46.742;11.636;2022-08-27T04:40:10;3.67;;;2.70;;
2766;SDS011;1391;46.742;11.636;2022-08-27T04:42:37;3.07;;;2.73;;
2766;SDS011;1391;46.742;11.636;2022-08-27T04:45:07;4.30;;;2.50;;
2766;SDS011;1391;46.742;11.636;2022-08-27T04:47:35;5.20;;;2.50;;
2766;SDS011;1391;46.742;11.636;2022-08-27T04:50:03;3.37;;;2.83;;
2766;SDS011;1391;46.742;11.636;2022-08-27T04:52:31;2.80;;;2.50;;
2766;SDS011;1391;46.742;11.636;2022-08-27T04:54:59;3.80;;;2.53;;
2766;SDS011;1391;46.742;11.636;2022-08-27T04:57:27;2.43;;;2.23;;
2766;SDS011;1391;46.742;11.636;2022-08-27T04:59:54;4.97;;;2.93;;
2766;SDS011;1391;46.742;11.636;2022-08-27T05:02:23;2.93;;;2.63;;
2766;SDS011;1391;46.742;11.636;2022-08-27T05:04:50;3.27;;;2.97;;
2766;SDS011;1391;46.742;11.636;2022-08-27T05:07:17;4.33;;;2.63;;
2766;SDS011;1391;46.742;11.636;2022-08-27T05:09:45;3.67;;;3.20;;
2766;SDS011;1391;46.742;11.636;2022-08-27T05:12:12;5.20;;;2.60;;
2766;SDS011;1391;46.742;11.636;2022-08-27T05:14:39;2.83;;;2.47;;
2766;SDS011;1391;46.742;11.636;2022-08-27T05:17:08;2.70;;;2.50;;
2766;SDS011;1391;46.742;11.636;2022-08-27T05:19:37;3.20;;;2.57;;
2766;SDS011;1391;46.742;11.636;2022-08-27T05:22:04;2.83;;;2.60;;
2766;SDS011;1391;46.742;11.636;2022-08-27T05:24:32;2.97;;;2.67;;
2766;SDS011;1391;46.742;11.636;2022-08-27T05:26:59;2.80;;;2.53;;
2766;SDS011;1391;46.742;11.636;2022-08-27T05:29:26;2.70;;;2.50;;
2766;SDS011;1391;46.742;11.636;2022-08-27T05:31:55;7.20;;;3.03;;
2766;SDS011;1391;46.742;11.636;2022-08-27T05:34:22;3.40;;;3.10;;
2766;SDS011;1391;46.742;11.636;2022-08-27T05:36:50;3.20;;;2.90;;
2766;SDS011;1391;46.742;11.636;2022-08-27T05:39:18;5.40;;;3.00;;
2766;SDS011;1391;46.742;11.636;2022-08-27T05:41:45;3.37;;;3.07;;
2766;SDS011;1391;46.742;11.636;2022-08-27T05:44:13;8.03;;;3.20;;
2766;SDS011;1391;46.742;11.636;2022-08-27T05:46:41;3.40;;;2.97;;
2766;SDS011;1391;46.742;11.636;2022-08-27T05:49:09;3.27;;;2.97;;
2766;SDS011;1391;46.742;11.636;2022-08-27T05:51:37;4.47;;;3.10;;
2766;SDS011;1391;46.742;11.636;2022-08-27T05:54:07;3.53;;;3.23;;
2766;SDS011;1391;46.742;11.636;2022-08-27T05:56:42;4.57;;;3.77;;
2766;SDS011;1391;46.742;11.636;2022-08-27T05:59:10;4.80;;;3.43;;
2766;SDS011;1391;46.742;11.636;2022-08-27T06:01:55;6.13;;;3.80;;
2766;SDS011;1391;46.742;11.636;2022-08-27T06:04:24;4.67;;;3.47;;
2766;SDS011;1391;46.742;11.636;2022-08-27T06:06:52;3.87;;;3.20;;
2766;SDS011;1391;46.742;11.636;2022-08-27T06:09:23;3.40;;;3.10;;
2766;SDS011;1391;46.742;11.636;2022-08-27T06:11:53;3.83;;;3.30;;
2766;SDS011;1391;46.742;11.636;2022-08-27T06:14:22;3.70;;;3.20;;
2766;SDS011;1391;46.742;11.636;2022-08-27T06:16:50;3.70;;;2.93;;
2766;SDS011;1391;46.742;11.636;2022-08-27T06:19:18;4.03;;;3.60;;
2766;SDS011;1391;46.742;11.636;2022-08-27T06:21:45;3.50;;;3.20;;
2766;SDS011;1391;46.742;11.636;2022-08-27T06:24:13;3.90;;;3.57;;
2766;SDS011;1391;46.742;11.636;2022-08-27T06:26:43;6.33;;;3.60;;
2766;SDS011;1391;46.742;11.636;2022-08-27T06:29:11;4.30;;;3.13;;
2766;SDS011;1391;46.742;11.636;2022-08-27T06:31:39;5.30;;;2.80;;
2766;SDS011;1391;46.742;11.636;2022-08-27T06:34:08;5.57;;;3.27;;
2766;SDS011;1391;46.742;11.636;2022-08-27T06:36:37;6.00;;;3.50;;
2766;SDS011;1391;46.742;11.636;2022-08-27T06:39:07;3.27;;;2.83;;
2766;SDS011;1391;46.742;11.636;2022-08-27T06:41:38;3.40;;;3.10;;
2766;SDS011;1391;46.742;11.636;2022-08-27T06:44:07;4.63;;;3.00;;
2766;SDS011;1391;46.742;11.636;2022-08-27T06:46:35;3.67;;;2.93;;
2766;SDS011;1391;46.742;11.636;2022-08-27T06:49:03;5.20;;;3.40;;
2766;SDS011;1391;46.742;11.636;2022-08-27T06:51:32;3.47;;;3.10;;
2766;SDS011;1391;46.742;11.636;2022-08-27T06:54:03;5.23;;;3.50;;
2766;SDS011;1391;46.742;11.636;2022-08-27T06:56:32;4.50;;;3.07;;
2766;SDS011;1391;46.742;11.636;2022-08-27T06:59:01;3.70;;;3.40;;
2766;SDS011;1391;46.742;11.636;2022-08-27T07:01:34;5.33;;;3.43;;
2766;SDS011;1391;46.742;11.636;2022-08-27T07:04:05;5.17;;;3.40;;
2766;SDS011;1391;46.742;11.636;2022-08-27T07:06:36;4.57;;;3.30;;
2766;SDS011;1391;46.742;11.636;2022-08-27T07:09:04;4.50;;;2.50;;
2766;SDS011;1391;46.742;11.636;2022-08-27T07:11:32;5.13;;;2.77;;
2766;SDS011;1391;46.742;11.636;2022-08-27T07:13:59;6.33;;;3.77;;
2766;SDS011;1391;46.742;11.636;2022-08-27T07:16:27;5.30;;;3.10;;
2766;SDS011;1391;46.742;11.636;2022-08-27T07:18:57;3.60;;;2.83;;
2766;SDS011;1391;46.742;11.636;2022-08-27T07:21:27;6.87;;;3.13;;
2766;SDS011;1391;46.742;11.636;2022-08-27T07:23:54;6.23;;;3.30;;
2766;SDS011;1391;46.742;11.636;2022-08-27T07:26:23;5.17;;;3.10;;
2766;SDS011;1391;46.742;11.636;2022-08-27T07:28:52;3.30;;;3.00;;
2766;SDS011;1391;46.742;11.636;2022-08-27T07:31:20;3.03;;;2.63;;
2766;SDS011;1391;46.742;11.636;2022-08-27T07:33:50;3.00;;;2.70;;
2766;SDS011;1391;46.742;11.636;2022-08-27T07:36:19;2.90;;;2.60;;
2766;SDS011;1391;46.742;11.636;2022-08-27T07:38:47;3.50;;;2.60;;
2766;SDS011;1391;46.742;11.636;2022-08-27T07:41:15;3.23;;;2.93;;
2766;SDS011;1391;46.742;11.636;2022-08-27T07:43:43;2.93;;;2.67;;
2766;SDS011;1391;46.742;11.636;2022-08-27T07:46:28;4.53;;;2.50;;
2766;SDS011;1391;46.742;11.636;2022-08-27T07:48:55;5.30;;;3.07;;
2766;SDS011;1391;46.742;11.636;2022-08-27T07:51:25;2.90;;;2.60;;
2766;SDS011;1391;46.742;11.636;2022-08-27T07:53:56;2.73;;;2.37;;
2766;SDS011;1391;46.742;11.636;2022-08-27T07:56:24;2.93;;;2.57;;
2766;SDS011;1391;46.742;11.636;2022-08-27T07:58:51;3.77;;;2.50;;
2766;SDS011;1391;46.742;11.636;2022-08-27T08:01:18;2.80;;;2.60;;
2766;SDS011;1391;46.742;11.636;2022-08-27T08:03:48;3.53;;;2.60;;
2766;SDS011;1391;46.742;11.636;2022-08-27T08:06:15;2.40;;;2.20;;
2766;SDS011;1391;46.742;11.636;2022-08-27T08:08:44;2.90;;;2.60;;
2766;SDS011;1391;46.742;11.636;2022-08-27T08:11:12;2.90;;;2.43;;
2766;SDS011;1391;46.742;11.636;2022-08-27T08:13:42;2.60;;;2.23;;
2766;SDS011;1391;46.742;11.636;2022-08-27T08:16:12;3.07;;;2.83;;
2766;SDS011;1391;46.742;11.636;2022-08-27T08:18:39;2.50;;;2.30;;
2766;SDS011;1391;46.742;11.636;2022-08-27T08:21:08;2.80;;;2.40;;
2766;SDS011;1391;46.742;11.636;2022-08-27T08:23:38;3.73;;;2.20;;
2766;SDS011;1391;46.742;11.636;2022-08-27T08:26:07;2.03;;;1.80;;
2766;SDS011;1391;46.742;11.636;2022-08-27T08:28:36;2.30;;;1.97;;
2766;SDS011;1391;46.742;11.636;2022-08-27T08:31:04;3.00;;;2.20;;
2766;SDS011;1391;46.742;11.636;2022-08-27T08:33:32;2.77;;;2.00;;
2766;SDS011;1391;46.742;11.636;2022-08-27T08:36:01;2.23;;;2.03;;
2766;SDS011;1391;46.742;11.636;2022-08-27T08:38:31;2.63;;;2.43;;
2766;SDS011;1391;46.742;11.636;2022-08-27T08:40:58;3.70;;;2.17;;
2766;SDS011;1391;46.742;11.636;2022-08-27T08:43:30;2.57;;;2.10;;
2766;SDS011;1391;46.742;11.636;2022-08-27T08:46:06;2.57;;;2.20;;
2766;SDS011;1391;46.742;11.636;2022-08-27T08:48:41;3.80;;;2.30;;
2766;SDS011;1391;46.742;11.636;2022-08-27T08:51:14;2.67;;;2.13;;
2766;SDS011;1391;46.742;11.636;2022-08-27T08:53:49;3.30;;;2.30;;
2766;SDS011;1391;46.742;11.636;2022-08-27T08:56:22;3.80;;;2.27;;
2766;SDS011;1391;46.742;11.636;2022-08-27T08:58:56;2.40;;;2.00;;
2766;SDS011;1391;46.742;11.636;2022-08-27T09:01:28;3.70;;;2.27;;
2766;SDS011;1391;46.742;11.636;2022-08-27T09:03:56;2.97;;;2.20;;
2766;SDS011;1391;46.742;11.636;2022-08-27T09:06:30;3.03;;;2.37;;
2766;SDS011;1391;46.742;11.636;2022-08-27T09:09:07;2.60;;;2.40;;
2766;SDS011;1391;46.742;11.636;2022-08-27T09:11:48;3.80;;;2.47;;
2766;SDS011;1391;46.742;11.636;2022-08-27T09:14:29;2.70;;;2.50;;
2766;SDS011;1391;46.742;11.636;2022-08-27T09:17:03;3.70;;;2.73;;
2766;SDS011;1391;46.742;11.636;2022-08-27T09:19:31;3.43;;;2.60;;
2766;SDS011;1391;46.742;11.636;2022-08-27T09:22:00;2.67;;;2.47;;
2766;SDS011;1391;46.742;11.636;2022-08-27T09:24:36;4.63;;;2.73;;
2766;SDS011;1391;46.742;11.636;2022-08-27T09:27:13;2.80;;;2.50;;
2766;SDS011;1391;46.742;11.636;2022-08-27T09:29:47;2.73;;;2.53;;
2766;SDS011;1391;46.742;11.636;2022-08-27T09:32:21;2.40;;;2.20;;
2766;SDS011;1391;46.742;11.636;2022-08-27T09:34:50;3.13;;;2.40;;
2766;SDS011;1391;46.742;11.636;2022-08-27T09:37:18;4.77;;;2.90;;
2766;SDS011;1391;46.742;11.636;2022-08-27T09:39:50;2.80;;;2.38;;
2766;SDS011;1391;46.742;11.636;2022-08-27T09:42:26;3.23;;;2.53;;
2766;SDS011;1391;46.742;11.636;2022-08-27T09:44:58;2.40;;;2.20;;
2766;SDS011;1391;46.742;11.636;2022-08-27T09:47:25;2.53;;;2.33;;
2766;SDS011;1391;46.742;11.636;2022-08-27T09:50:03;3.07;;;2.67;;
2766;SDS011;1391;46.742;11.636;2022-08-27T09:52:36;2.57;;;2.37;;
2766;SDS011;1391;46.742;11.636;2022-08-27T09:55:28;2.63;;;2.43;;
2766;SDS011;1391;46.742;11.636;2022-08-27T09:58:06;2.90;;;2.50;;
2766;SDS011;1391;46.742;11.636;2022-08-27T10:00:59;3.43;;;2.97;;
2766;SDS011;1391;46.742;11.636;2022-08-27T10:03:28;3.57;;;2.90;;
2766;SDS011;1391;46.742;11.636;2022-08-27T10:05:56;2.57;;;2.37;;
2766;SDS011;1391;46.742;11.636;2022-08-27T10:08:26;3.63;;;2.57;;
2766;SDS011;1391;46.742;11.636;2022-08-27T10:11:03;3.63;;;2.57;;
2766;SDS011;1391;46.742;11.636;2022-08-27T10:13:38;2.53;;;2.30;;
2766;SDS011;1391;46.742;11.636;2022-08-27T10:16:23;3.43;;;2.53;;
2766;SDS011;1391;46.742;11.636;2022-08-27T10:19:23;4.10;;;2.70;;
2766;SDS011;1391;46.742;11.636;2022-08-27T10:22:13;2.97;;;2.60;;
2766;SDS011;1391;46.742;11.636;2022-08-27T10:24:53;3.43;;;2.87;;
2766;SDS011;1391;46.742;11.636;2022-08-27T10:27:36;3.57;;;2.80;;
2766;SDS011;1391;46.742;11.636;2022-08-27T10:30:14;3.30;;;2.70;;
2766;SDS011;1391;46.742;11.636;2022-08-27T10:32:54;3.13;;;2.83;;
2766;SDS011;1391;46.742;11.636;2022-08-27T10:35:30;3.37;;;3.00;;
2766;SDS011;1391;46.742;11.636;2022-08-27T10:38:06;2.90;;;2.60;;
2766;SDS011;1391;46.742;11.636;2022-08-27T10:40:42;2.87;;;2.67;;
2766;SDS011;1391;46.742;11.636;2022-08-27T10:46:37;3.00;;;2.70;;
2766;SDS011;1391;46.742;11.636;2022-08-27T10:49:33;2.90;;;2.70;;
2766;SDS011;1391;46.742;11.636;2022-08-27T10:52:12;2.87;;;2.67;;
2766;SDS011;1391;46.742;11.636;2022-08-27T10:54:47;3.30;;;2.87;;
2766;SDS011;1391;46.742;11.636;2022-08-27T10:57:22;3.07;;;2.70;;
2766;SDS011;1391;46.742;11.636;2022-08-27T11:00:07;3.37;;;3.07;;
2766;SDS011;1391;46.742;11.636;2022-08-27T11:02:41;3.57;;;2.80;;
2766;SDS011;1391;46.742;11.636;2022-08-27T11:05:16;3.20;;;2.90;;
2766;SDS011;1391;46.742;11.636;2022-08-27T11:07:50;3.40;;;2.50;;
2766;SDS011;1391;46.742;11.636;2022-08-27T11:10:25;3.13;;;2.70;;
2766;SDS011;1391;46.742;11.636;2022-08-27T11:12:57;4.67;;;3.13;;
2766;SDS011;1391;46.742;11.636;2022-08-27T11:15:31;4.17;;;2.97;;
2766;SDS011;1391;46.742;11.636;2022-08-27T11:18:02;3.33;;;3.03;;
2766;SDS011;1391;46.742;11.636;2022-08-27T11:20:39;3.47;;;3.17;;
2766;SDS011;1391;46.742;11.636;2022-08-27T11:23:13;3.90;;;3.23;;
2766;SDS011;1391;46.742;11.636;2022-08-27T11:25:44;4.40;;;3.07;;
2766;SDS011;1391;46.742;11.636;2022-08-27T11:28:16;5.70;;;3.20;;
2766;SDS011;1391;46.742;11.636;2022-08-27T11:30:51;2.87;;;2.67;;
2766;SDS011;1391;46.742;11.636;2022-08-27T11:33:28;2.80;;;2.60;;
2766;SDS011;1391;46.742;11.636;2022-08-27T11:36:07;2.37;;;2.17;;
2766;SDS011;1391;46.742;11.636;2022-08-27T11:39:00;2.70;;;2.50;;
2766;SDS011;1391;46.742;11.636;2022-08-27T11:44:24;5.40;;;2.43;;
2766;SDS011;1391;46.742;11.636;2022-08-27T11:46:55;3.93;;;2.50;;
2766;SDS011;1391;46.742;11.636;2022-08-27T11:49:39;3.50;;;2.20;;
2766;SDS011;1391;46.742;11.636;2022-08-27T11:52:18;3.50;;;2.37;;
2766;SDS011;1391;46.742;11.636;2022-08-27T11:54:51;2.23;;;2.03;;
2766;SDS011;1391;46.742;11.636;2022-08-27T11:57:28;5.07;;;2.57;;
2766;SDS011;1391;46.742;11.636;2022-08-27T12:00:14;2.57;;;2.37;;
2766;SDS011;1391;46.742;11.636;2022-08-27T12:02:55;2.50;;;2.30;;
2766;SDS011;1391;46.742;11.636;2022-08-27T12:05:33;2.63;;;2.43;;
2766;SDS011;1391;46.742;11.636;2022-08-27T12:08:17;3.40;;;2.50;;
2766;SDS011;1391;46.742;11.636;2022-08-27T12:11:02;3.83;;;2.70;;
2766;SDS011;1391;46.742;11.636;2022-08-27T12:13:51;3.00;;;2.70;;
2766;SDS011;1391;46.742;11.636;2022-08-27T12:16:31;4.10;;;2.47;;
2766;SDS011;1391;46.742;11.636;2022-08-27T12:19:12;4.90;;;2.80;;
2766;SDS011;1391;46.742;11.636;2022-08-27T12:22:12;4.07;;;2.83;;
2766;SDS011;1391;46.742;11.636;2022-08-27T12:24:55;4.13;;;2.70;;
2766;SDS011;1391;46.742;11.636;2022-08-27T12:27:29;3.50;;;2.33;;
2766;SDS011;1391;46.742;11.636;2022-08-27T12:30:03;2.83;;;2.60;;
2766;SDS011;1391;46.742;11.636;2022-08-27T12:32:55;4.27;;;2.70;;
2766;SDS011;1391;46.742;11.636;2022-08-27T12:35:27;3.67;;;2.77;;
2766;SDS011;1391;46.742;11.636;2022-08-27T12:38:05;5.43;;;3.20;;
2766;SDS011;1391;46.742;11.636;2022-08-27T12:40:44;2.87;;;2.63;;
2766;SDS011;1391;46.742;11.636;2022-08-27T12:43:18;4.20;;;3.80;;
2766;SDS011;1391;46.742;11.636;2022-08-27T12:45:49;3.97;;;3.57;;
2766;SDS011;1391;46.742;11.636;2022-08-27T12:48:24;5.17;;;4.27;;
2766;SDS011;1391;46.742;11.636;2022-08-27T12:50:57;5.67;;;4.13;;
2766;SDS011;1391;46.742;11.636;2022-08-27T12:53:32;5.73;;;3.90;;
2766;SDS011;1391;46.742;11.636;2022-08-27T12:56:17;7.20;;;4.53;;
2766;SDS011;1391;46.742;11.636;2022-08-27T12:59:01;4.43;;;3.90;;
2766;SDS011;1391;46.742;11.636;2022-08-27T13:01:43;6.30;;;3.87;;
2766;SDS011;1391;46.742;11.636;2022-08-27T13:04:25;5.27;;;3.63;;
2766;SDS011;1391;46.742;11.636;2022-08-27T13:06:56;5.70;;;4.53;;
2766;SDS011;1391;46.742;11.636;2022-08-27T13:09:24;5.67;;;4.30;;
2766;SDS011;1391;46.742;11.636;2022-08-27T13:11:54;5.70;;;4.90;;
2766;SDS011;1391;46.742;11.636;2022-08-27T13:14:24;5.50;;;4.73;;
2766;SDS011;1391;46.742;11.636;2022-08-27T13:16:54;6.63;;;4.33;;
2766;SDS011;1391;46.742;11.636;2022-08-27T13:19:26;5.60;;;5.00;;
2766;SDS011;1391;46.742;11.636;2022-08-27T13:21:57;5.80;;;4.40;;
2766;SDS011;1391;46.742;11.636;2022-08-27T13:24:27;6.33;;;5.10;;
2766;SDS011;1391;46.742;11.636;2022-08-27T13:27:01;6.07;;;4.67;;
2766;SDS011;1391;46.742;11.636;2022-08-27T13:29:32;4.77;;;4.17;;
2766;SDS011;1391;46.742;11.636;2022-08-27T13:31:59;7.23;;;4.40;;
2766;SDS011;1391;46.742;11.636;2022-08-27T13:34:33;6.27;;;4.60;;
2766;SDS011;1391;46.742;11.636;2022-08-27T13:37:06;6.57;;;5.27;;
2766;SDS011;1391;46.742;11.636;2022-08-27T13:39:50;6.73;;;4.60;;
2766;SDS011;1391;46.742;11.636;2022-08-27T13:42:19;6.83;;;4.20;;
2766;SDS011;1391;46.742;11.636;2022-08-27T13:44:49;5.87;;;4.80;;
2766;SDS011;1391;46.742;11.636;2022-08-27T13:47:21;6.10;;;4.97;;
2766;SDS011;1391;46.742;11.636;2022-08-27T13:50:03;5.90;;;4.60;;
2766;SDS011;1391;46.742;11.636;2022-08-27T13:52:41;7.17;;;4.57;;
2766;SDS011;1391;46.742;11.636;2022-08-27T13:55:25;5.30;;;4.73;;
2766;SDS011;1391;46.742;11.636;2022-08-27T13:57:54;6.10;;;4.50;;
2766;SDS011;1391;46.742;11.636;2022-08-27T14:00:23;6.37;;;5.20;;
2766;SDS011;1391;46.742;11.636;2022-08-27T14:02:55;5.13;;;4.63;;
2766;SDS011;1391;46.742;11.636;2022-08-27T14:05:28;5.33;;;4.83;;
2766;SDS011;1391;46.742;11.636;2022-08-27T14:08:01;5.93;;;4.87;;
2766;SDS011;1391;46.742;11.636;2022-08-27T14:10:45;7.83;;;5.30;;
2766;SDS011;1391;46.742;11.636;2022-08-27T14:13:20;5.47;;;4.57;;
2766;SDS011;1391;46.742;11.636;2022-08-27T14:15:50;6.27;;;5.03;;
2766;SDS011;1391;46.742;11.636;2022-08-27T14:18:21;5.40;;;4.60;;
2766;SDS011;1391;46.742;11.636;2022-08-27T14:20:53;5.40;;;4.77;;
2766;SDS011;1391;46.742;11.636;2022-08-27T14:23:21;5.20;;;4.70;;
2766;SDS011;1391;46.742;11.636;2022-08-27T14:25:49;6.30;;;4.83;;
2766;SDS011;1391;46.742;11.636;2022-08-27T14:28:18;5.57;;;4.90;;
2766;SDS011;1391;46.742;11.636;2022-08-27T14:30:46;4.87;;;4.37;;
2766;SDS011;1391;46.742;11.636;2022-08-27T14:33:14;5.67;;;5.00;;
2766;SDS011;1391;46.742;11.636;2022-08-27T14:35:42;5.43;;;4.90;;
2766;SDS011;1391;46.742;11.636;2022-08-27T14:38:13;7.63;;;4.60;;
2766;SDS011;1391;46.742;11.636;2022-08-27T14:40:42;6.47;;;4.63;;
2766;SDS011;1391;46.742;11.636;2022-08-27T14:43:10;5.67;;;4.70;;
2766;SDS011;1391;46.742;11.636;2022-08-27T14:45:38;5.37;;;4.50;;
2766;SDS011;1391;46.742;11.636;2022-08-27T14:48:07;4.83;;;4.33;;
2766;SDS011;1391;46.742;11.636;2022-08-27T14:50:40;7.77;;;4.37;;
2766;SDS011;1391;46.742;11.636;2022-08-27T14:53:08;7.53;;;4.97;;
2766;SDS011;1391;46.742;11.636;2022-08-27T14:55:38;5.93;;;4.40;;
2766;SDS011;1391;46.742;11.636;2022-08-27T14:58:05;6.67;;;4.90;;
2766;SDS011;1391;46.742;11.636;2022-08-27T15:00:33;5.70;;;5.10;;
2766;SDS011;1391;46.742;11.636;2022-08-27T15:03:00;6.57;;;4.63;;
2766;SDS011;1391;46.742;11.636;2022-08-27T15:05:27;6.73;;;4.37;;
2766;SDS011;1391;46.742;11.636;2022-08-27T15:07:54;6.17;;;4.70;;
2766;SDS011;1391;46.742;11.636;2022-08-27T15:10:24;5.73;;;4.40;;
2766;SDS011;1391;46.742;11.636;2022-08-27T15:12:51;6.27;;;4.63;;
2766;SDS011;1391;46.742;11.636;2022-08-27T15:15:19;5.23;;;4.60;;
2766;SDS011;1391;46.742;11.636;2022-08-27T15:17:47;7.40;;;4.30;;
2766;SDS011;1391;46.742;11.636;2022-08-27T15:20:14;9.07;;;4.60;;
2766;SDS011;1391;46.742;11.636;2022-08-27T15:22:43;4.40;;;4.00;;
2766;SDS011;1391;46.742;11.636;2022-08-27T15:25:15;5.47;;;4.63;;
2766;SDS011;1391;46.742;11.636;2022-08-27T15:27:44;7.13;;;4.30;;
2766;SDS011;1391;46.742;11.636;2022-08-27T15:30:12;6.10;;;4.47;;
2766;SDS011;1391;46.742;11.636;2022-08-27T15:32:42;4.87;;;4.23;;